Time;durP1;ratioP1;P1;durP2;ratioP2;P2;SDS_P1;SDS_P2;PMS_P1;PMS_P2;Temp;Humidity;BMP_temperature;BMP_pressure;BME280_temperature;BME280_humidity;BME280_pressure;Samples;Min_cycle;Max_cycle;Signal;HPM_P1;HPM_P2
2023/03/08 00:01:17;;;;;;;50.30;26.70;;;;;;;3.77;79.04;96955.91;135690;1272;25406;-85
2023/03/08 00:04:20;;;;;;;50.20;27.30;;;;;;;3.78;78.90;96960.41;135674;1272;22543;-83
2023/03/08 00:07:22;;;;;;;49.40;25.40;;;;;;;3.79;78.95;96963.84;135663;1272;22523;-83
2023/03/08 00:10:25;;;;;;;44.70;25.00;;;;;;;3.78;78.83;96965.73;135684;1250;24308;-82
2023/03/08 00:13:27;;;;;;;48.80;26.30;;;;;;;3.79;79.10;96966.77;135692;1272;22527;-83
2023/03/08 00:16:30;;;;;;;56.20;26.20;;;;;;;3.82;79.17;96964.90;135690;1272;24735;-85
2023/03/08 00:19:32;;;;;;;41.70;25.10;;;;;;;3.86;79.23;96969.75;135639;1272;22569;-84
2023/03/08 00:22:35;;;;;;;43.80;25.00;;;;;;;3.91;79.29;96965.84;135650;1272;22533;-85
2023/03/08 00:25:37;;;;;;;44.00;23.50;;;;;;;3.96;79.23;96971.02;135655;1272;25391;-84
2023/03/08 00:28:40;;;;;;;47.80;24.90;;;;;;;3.99;79.27;96966.23;135665;1272;22524;-83
2023/03/08 00:31:42;;;;;;;45.10;24.80;;;;;;;4.03;79.18;96968.34;135638;1272;24199;-84
2023/03/08 00:34:45;;;;;;;39.50;22.40;;;;;;;4.06;79.24;96967.49;135645;1272;22567;-84
2023/03/08 00:37:48;;;;;;;45.10;24.40;;;;;;;4.10;79.23;96963.73;135656;1272;22576;-83
2023/03/08 00:40:50;;;;;;;46.20;24.90;;;;;;;4.13;79.15;96966.34;135696;1272;22535;-81
2023/03/08 00:43:53;;;;;;;38.00;21.90;;;;;;;4.16;79.09;96966.19;135897;1272;22523;-82
2023/03/08 00:46:55;;;;;;;44.80;24.40;;;;;;;4.18;79.24;96963.62;135783;1272;22517;-82
2023/03/08 00:49:58;;;;;;;42.80;23.50;;;;;;;4.20;79.02;96964.84;135689;1272;22682;-81
2023/03/08 00:53:00;;;;;;;38.00;21.80;;;;;;;4.22;79.11;96965.55;135663;1272;22637;-82
2023/03/08 00:56:03;;;;;;;39.60;23.00;;;;;;;4.22;79.13;96966.92;135694;1272;22566;-82
2023/03/08 00:59:05;;;;;;;39.80;22.20;;;;;;;4.23;79.48;96962.62;135698;1254;22524;-82
2023/03/08 01:02:08;;;;;;;36.50;21.70;;;;;;;4.22;79.46;96965.02;135628;1272;22546;-84
2023/03/08 01:05:10;;;;;;;36.00;20.60;;;;;;;4.23;79.40;96963.48;135750;1272;25236;-84
2023/03/08 01:08:13;;;;;;;39.20;23.00;;;;;;;4.25;79.53;96962.98;135680;1272;22540;-83
2023/03/08 01:11:15;;;;;;;39.80;24.20;;;;;;;4.26;79.52;96963.67;135693;1272;22538;-84
2023/03/08 01:14:19;;;;;;;41.00;22.80;;;;;;;4.28;79.77;96962.14;135647;1272;22572;-83
2023/03/08 01:17:22;;;;;;;41.30;22.90;;;;;;;4.27;79.95;96965.23;135613;1272;22531;-83
2023/03/08 01:20:24;;;;;;;37.20;23.20;;;;;;;4.27;80.21;96969.02;135760;1272;23351;-83
2023/03/08 01:23:27;;;;;;;35.50;20.30;;;;;;;4.25;80.15;96966.60;135622;1272;22544;-83
2023/03/08 01:26:29;;;;;;;31.80;20.60;;;;;;;4.23;80.63;96963.83;135645;1272;24208;-82
2023/03/08 01:29:32;;;;;;;35.20;22.10;;;;;;;4.19;80.66;96958.64;135672;1272;22545;-82
2023/03/08 01:32:34;;;;;;;32.80;19.90;;;;;;;4.16;80.86;96955.52;135622;1272;22541;-83
2023/03/08 01:35:36;;;;;;;30.50;20.10;;;;;;;4.14;81.34;96956.19;135663;1272;24749;-84
2023/03/08 01:38:39;;;;;;;34.50;21.70;;;;;;;4.12;80.98;96950.66;135674;1272;22545;-83
2023/03/08 01:41:41;;;;;;;34.80;21.60;;;;;;;4.10;81.23;96951.86;135694;1272;22546;-83
2023/03/08 01:44:44;;;;;;;30.30;20.80;;;;;;;4.10;81.37;96950.48;135663;1272;22543;-83
2023/03/08 01:47:46;;;;;;;35.80;22.80;;;;;;;4.10;81.82;96950.30;135685;1272;22517;-84
2023/03/08 01:50:49;;;;;;;32.20;20.20;;;;;;;4.10;81.86;96952.03;135653;1272;24906;-83
2023/03/08 01:53:51;;;;;;;33.20;21.10;;;;;;;4.08;81.69;96952.02;135627;1272;22527;-83
2023/03/08 01:56:54;;;;;;;34.30;20.90;;;;;;;4.08;81.85;96948.58;135738;1270;22633;-82
2023/03/08 01:59:56;;;;;;;33.00;20.70;;;;;;;4.07;81.99;96943.58;135650;1272;22526;-81
2023/03/08 02:03:00;;;;;;;32.70;21.60;;;;;;;4.06;82.06;96946.50;135628;1272;22534;-82
2023/03/08 02:06:03;;;;;;;31.10;19.90;;;;;;;4.04;82.40;96942.19;135700;1272;24285;-83
2023/03/08 02:09:05;;;;;;;32.70;21.30;;;;;;;4.01;82.50;96940.95;135705;1272;22547;-83
2023/03/08 02:12:08;;;;;;;34.00;21.40;;;;;;;3.97;82.62;96944.02;135704;1272;22539;-83
2023/03/08 02:15:10;;;;;;;33.70;21.00;;;;;;;3.94;82.66;96936.09;135625;1272;22534;-84
2023/03/08 02:18:12;;;;;;;32.30;22.50;;;;;;;3.92;82.71;96938.48;135659;1272;22526;-84
2023/03/08 02:21:15;;;;;;;35.50;22.90;;;;;;;3.89;82.81;96939.48;135672;1272;23188;-84
2023/03/08 02:24:17;;;;;;;30.90;21.00;;;;;;;3.84;82.84;96937.04;135667;1272;22528;-85
2023/03/08 02:27:20;;;;;;;33.80;22.60;;;;;;;3.77;83.04;96937.52;135649;1272;22542;-83
2023/03/08 02:30:22;;;;;;;33.90;22.10;;;;;;;3.70;82.99;96942.61;135697;1272;22580;-84
2023/03/08 02:33:25;;;;;;;33.20;22.10;;;;;;;3.66;83.21;96942.41;135644;1272;22613;-83
2023/03/08 02:36:27;;;;;;;35.60;21.70;;;;;;;3.64;83.79;96946.35;135652;1272;22546;-82
2023/03/08 02:39:30;;;;;;;34.00;21.80;;;;;;;3.62;84.24;96947.88;135712;1272;24291;-82
2023/03/08 02:42:32;;;;;;;37.00;23.50;;;;;;;3.61;83.89;96951.99;135631;1272;22534;-82
2023/03/08 02:45:35;;;;;;;41.70;24.10;;;;;;;3.60;84.49;96958.70;135695;1272;22537;-84
2023/03/08 02:48:39;;;;;;;32.60;21.10;;;;;;;3.60;84.17;96965.58;135702;1272;22537;-83
2023/03/08 02:51:42;;;;;;;;;;;;;;;3.61;84.78;96973.67;135654;1272;22516;-85
2023/03/08 02:54:44;;;;;;;45.80;27.60;;;;;;;3.63;84.56;96976.61;135612;1272;22637;-82
2023/03/08 02:57:47;;;;;;;45.90;28.70;;;;;;;3.65;84.40;96982.48;135663;1272;25382;-83
2023/03/08 03:00:50;;;;;;;44.30;26.30;;;;;;;3.68;84.74;96984.73;135648;1272;25227;-83
2023/03/08 03:03:52;;;;;;;37.70;25.30;;;;;;;3.69;84.34;96984.75;135506;1272;190143;-83
2023/03/08 03:06:54;;;;;;;42.20;27.60;;;;;;;3.69;84.29;96982.34;135697;1272;22534;-83
2023/03/08 03:09:57;;;;;;;39.50;25.20;;;;;;;3.71;84.49;96983.73;135635;1272;22616;-84
2023/03/08 03:12:59;;;;;;;48.20;27.70;;;;;;;3.71;84.35;96989.92;135628;1272;22534;-86
2023/03/08 03:16:02;;;;;;;45.10;26.70;;;;;;;3.72;84.74;96997.85;135728;1272;22527;-82
2023/03/08 03:19:04;;;;;;;42.40;25.10;;;;;;;3.71;84.77;97006.61;135670;1272;22542;-85
2023/03/08 03:22:07;;;;;;;33.10;23.70;;;;;;;3.66;84.84;97009.31;135764;1272;22633;-82
2023/03/08 03:25:09;;;;;;;40.10;24.50;;;;;;;3.62;84.57;97015.14;135730;1272;22530;-84
2023/03/08 03:28:11;;;;;;;40.90;23.40;;;;;;;3.59;84.83;97025.08;135762;1272;22532;-81
2023/03/08 03:31:14;;;;;;;32.40;24.00;;;;;;;3.54;85.13;97028.80;135726;1249;22623;-84
2023/03/08 03:34:16;;;;;;;35.20;22.50;;;;;;;3.49;85.18;97040.63;135667;1272;22599;-83
2023/03/08 03:37:19;;;;;;;30.00;20.00;;;;;;;3.45;85.31;97047.08;135663;1272;22531;-82
2023/03/08 03:40:21;;;;;;;31.50;20.70;;;;;;;3.38;85.55;97055.60;135798;1272;24993;-82
2023/03/08 03:43:24;;;;;;;28.00;19.70;;;;;;;3.33;86.02;97057.77;135696;1272;24197;-83
2023/03/08 03:46:26;;;;;;;29.40;19.50;;;;;;;3.24;86.82;97066.95;135660;1272;22559;-84
2023/03/08 03:49:28;;;;;;;29.80;19.90;;;;;;;3.14;87.43;97064.42;135686;1272;22537;-84
2023/03/08 03:52:31;;;;;;;29.30;20.50;;;;;;;3.06;88.17;97065.02;135792;1272;22546;-84
2023/03/08 03:55:33;;;;;;;30.60;21.60;;;;;;;3.00;88.69;97073.35;135798;1270;22538;-83
2023/03/08 03:58:36;;;;;;;27.00;20.20;;;;;;;2.96;88.41;97076.39;135694;1272;22543;-83
2023/03/08 04:01:39;;;;;;;34.10;23.30;;;;;;;2.94;89.11;97085.64;135822;1272;25377;-84
2023/03/08 04:04:43;;;;;;;30.20;22.50;;;;;;;2.91;89.42;97092.14;135747;1272;25452;-84
2023/03/08 04:07:45;;;;;;;28.40;20.50;;;;;;;2.87;89.94;97090.02;135855;1272;22583;-84
2023/03/08 04:10:48;;;;;;;33.50;23.50;;;;;;;2.82;90.25;97098.02;135963;1272;22559;-83
2023/03/08 04:13:50;;;;;;;26.30;18.50;;;;;;;2.77;91.08;97103.80;135898;1272;22634;-84
2023/03/08 04:16:52;;;;;;;29.20;21.70;;;;;;;2.71;91.91;97109.36;135933;1272;23056;-84
2023/03/08 04:19:55;;;;;;;27.40;19.50;;;;;;;2.66;91.21;97106.71;135938;1272;22577;-84
2023/03/08 04:22:57;;;;;;;28.00;19.40;;;;;;;2.63;91.79;97106.67;136055;1272;22570;-84
2023/03/08 04:26:00;;;;;;;9.80;8.60;;;;;;;2.50;90.43;97117.95;136007;1271;24228;-84
2023/03/08 04:29:04;;;;;;;10.70;8.20;;;;;;;2.16;89.80;97128.04;135980;1261;22527;-84
2023/03/08 04:32:07;;;;;;;7.50;6.80;;;;;;;1.87;90.34;97134.05;136096;1261;22543;-83
2023/03/08 04:35:09;;;;;;;7.10;6.10;;;;;;;1.68;90.96;97134.52;135962;1272;22527;-80
2023/03/08 04:38:12;;;;;;;6.80;6.10;;;;;;;1.57;90.95;97138.57;135978;1272;22534;-81
2023/03/08 04:41:14;;;;;;;5.80;5.00;;;;;;;1.45;91.46;97146.57;136064;1272;22553;-82
2023/03/08 04:44:17;;;;;;;5.20;4.70;;;;;;;1.40;91.67;97149.20;136098;1272;22662;-82
2023/03/08 04:47:19;;;;;;;5.20;4.50;;;;;;;1.31;91.70;97152.27;135930;1272;22535;-82
2023/03/08 04:50:21;;;;;;;6.40;5.60;;;;;;;1.17;92.27;97156.27;136117;1272;22555;-83
2023/03/08 04:53:24;;;;;;;5.50;5.00;;;;;;;1.09;92.48;97162.25;136445;1272;22548;-83
2023/03/08 04:56:26;;;;;;;6.50;5.40;;;;;;;1.02;92.41;97170.50;136433;1272;22542;-83
2023/03/08 04:59:29;;;;;;;7.70;6.90;;;;;;;1.00;92.96;97180.23;136527;1272;22606;-82
2023/03/08 05:02:31;;;;;;;6.70;5.70;;;;;;;0.97;93.25;97182.02;136705;1272;22603;-81
2023/03/08 05:05:34;;;;;;;7.80;6.50;;;;;;;0.96;92.95;97182.52;136611;1272;24392;-83
2023/03/08 05:08:36;;;;;;;5.80;5.30;;;;;;;0.97;92.93;97186.84;136504;1272;22558;-83
2023/03/08 05:11:38;;;;;;;5.00;4.50;;;;;;;0.95;92.93;97194.67;136555;1261;22550;-83
2023/03/08 05:14:41;;;;;;;4.50;4.10;;;;;;;0.90;92.68;97193.88;136480;1272;22510;-82
2023/03/08 05:17:43;;;;;;;5.60;4.10;;;;;;;0.89;92.39;97196.25;136684;1272;22636;-81
2023/03/08 05:20:46;;;;;;;4.50;3.70;;;;;;;0.89;92.24;97201.05;136563;1272;22527;-83
2023/03/08 05:23:48;;;;;;;4.10;3.70;;;;;;;0.87;92.19;97204.55;136688;1272;23322;-80
2023/03/08 05:26:51;;;;;;;5.00;3.50;;;;;;;0.84;91.79;97209.45;136788;1272;22560;-81
2023/03/08 05:29:53;;;;;;;8.60;4.50;;;;;;;0.83;91.70;97212.85;136852;1272;23038;-82
2023/03/08 05:32:56;;;;;;;4.40;3.70;;;;;;;0.82;91.66;97205.47;136718;1272;23074;-83
2023/03/08 05:35:58;;;;;;;5.90;5.40;;;;;;;0.79;92.27;97217.55;137132;1272;22500;-82
2023/03/08 05:39:01;;;;;;;4.20;3.50;;;;;;;0.98;94.78;97231.89;136924;1272;22559;-80
2023/03/08 05:42:03;;;;;;;5.30;3.40;;;;;;;1.04;92.05;97233.73;136820;1272;22990;-82
2023/03/08 05:45:06;;;;;;;4.00;3.40;;;;;;;0.90;91.71;97243.55;135112;1272;22557;-81
2023/03/08 05:48:08;;;;;;;4.90;3.20;;;;;;;0.84;91.76;97253.98;136525;1272;22527;-79
2023/03/08 05:51:10;;;;;;;8.10;3.50;;;;;;;0.79;91.84;97254.20;136540;1272;22544;-82
2023/03/08 05:54:13;;;;;;;6.40;3.80;;;;;;;0.77;92.18;97254.31;136647;1272;22682;-82
2023/03/08 05:57:16;;;;;;;8.30;4.40;;;;;;;0.74;91.70;97249.61;136824;1272;22573;-83
2023/03/08 06:00:18;;;;;;;8.50;3.80;;;;;;;0.70;91.28;97257.21;137018;1272;22521;-80
2023/03/08 06:03:21;;;;;;;8.40;4.10;;;;;;;0.62;91.21;97265.09;136817;1272;22582;-80
2023/03/08 06:06:23;;;;;;;8.40;5.50;;;;;;;0.59;91.02;97265.01;136654;1270;22543;-83
2023/03/08 06:09:26;;;;;;;11.00;5.20;;;;;;;0.57;91.24;97278.83;136578;1257;22550;-82
2023/03/08 06:12:28;;;;;;;8.90;5.10;;;;;;;0.55;91.09;97279.95;136672;1272;22504;-80
2023/03/08 06:15:31;;;;;;;8.30;4.00;;;;;;;0.51;90.93;97284.83;135094;1272;22564;-80
2023/03/08 06:18:33;;;;;;;9.40;4.10;;;;;;;0.47;90.98;97287.27;134969;1272;22905;-80
2023/03/08 06:21:35;;;;;;;7.40;4.00;;;;;;;0.45;91.13;97290.46;136831;1272;22528;-81
2023/03/08 06:24:38;;;;;;;6.70;3.70;;;;;;;0.46;90.77;97284.86;136869;1272;22553;-81
2023/03/08 06:27:40;;;;;;;7.90;4.20;;;;;;;0.50;90.77;97293.16;135030;1272;22687;-82
2023/03/08 06:30:43;;;;;;;5.60;2.90;;;;;;;0.54;90.70;97306.64;137014;1272;22617;-80
2023/03/08 06:33:46;;;;;;;5.80;3.80;;;;;;;0.58;90.43;97312.21;136960;1272;22605;-83
2023/03/08 06:36:50;;;;;;;7.20;3.70;;;;;;;0.60;90.23;97315.00;136953;1267;22607;-82
2023/03/08 06:39:53;;;;;;;;;;;;;;;0.61;90.28;97314.35;136975;1269;22545;-81
2023/03/08 06:42:55;;;;;;;11.00;6.70;;;;;;;0.62;90.35;97330.13;136959;1272;22534;-82
2023/03/08 06:45:58;;;;;;;21.10;9.40;;;;;;;0.67;90.23;97335.21;136868;1272;23103;-82
2023/03/08 06:49:02;;;;;;;13.90;5.80;;;;;;;0.73;89.97;97331.77;137141;1272;22562;-82
2023/03/08 06:52:04;;;;;;;7.90;4.60;;;;;;;0.78;89.75;97338.41;136968;1260;22968;-82
2023/03/08 06:55:06;;;;;;;9.00;5.10;;;;;;;0.78;89.74;97347.14;136827;1272;23691;-82
2023/03/08 06:58:09;;;;;;;18.60;8.60;;;;;;;0.78;89.81;97343.71;136715;1272;24745;-83
2023/03/08 07:01:12;;;;;;;14.40;7.40;;;;;;;0.86;89.78;97350.64;136564;1272;23012;-83
2023/03/08 07:04:16;;;;;;;18.30;8.80;;;;;;;0.91;89.16;97360.71;136276;1272;22543;-80
2023/03/08 07:07:19;;;;;;;;;;;;;;;0.97;89.35;97359.15;136853;1272;23787;-79
2023/03/08 07:10:22;;;;;;;11.00;6.40;;;;;;;1.03;89.05;97364.61;136590;1272;22530;-81
2023/03/08 07:13:24;;;;;;;20.70;7.80;;;;;;;1.11;88.90;97363.95;136516;1272;25156;-83
2023/03/08 07:16:27;;;;;;;13.60;6.70;;;;;;;1.21;88.35;97367.80;136684;1266;22543;-82
2023/03/08 07:19:29;;;;;;;27.70;12.60;;;;;;;1.26;88.18;97368.27;136975;1272;22952;-82
2023/03/08 07:22:32;;;;;;;23.30;9.40;;;;;;;1.34;87.82;97374.11;137094;1272;22568;-80
2023/03/08 07:25:34;;;;;;;15.20;6.70;;;;;;;1.42;87.03;97371.23;137052;1272;23016;-80
2023/03/08 07:28:37;;;;;;;13.00;6.80;;;;;;;1.53;86.67;97377.83;136921;1272;22565;-83
2023/03/08 07:31:39;;;;;;;16.10;8.20;;;;;;;1.57;86.26;97378.61;137069;1272;22584;-81
2023/03/08 07:34:42;;;;;;;11.00;6.00;;;;;;;1.64;86.28;97371.23;137208;1272;22547;-80
2023/03/08 07:37:44;;;;;;;15.10;7.30;;;;;;;1.79;85.94;97374.50;137014;1272;22555;-84
2023/03/08 07:40:47;;;;;;;18.10;7.90;;;;;;;1.98;85.99;97378.36;136892;1272;22493;-81
2023/03/08 07:43:49;;;;;;;13.90;7.30;;;;;;;2.18;85.92;97382.07;136861;1272;22597;-80
2023/03/08 07:46:52;;;;;;;18.10;8.00;;;;;;;2.30;84.64;97390.54;136873;1272;22130;-80
2023/03/08 07:49:54;;;;;;;12.30;7.00;;;;;;;2.29;84.43;97394.13;136896;1272;22572;-80
2023/03/08 07:52:57;;;;;;;19.10;9.70;;;;;;;2.28;83.89;97393.59;136988;1272;22559;-80
2023/03/08 07:55:59;;;;;;;13.70;7.50;;;;;;;2.23;82.98;97397.95;136935;1272;22596;-79
2023/03/08 07:59:02;;;;;;;10.60;6.80;;;;;;;2.22;82.69;97393.98;136937;1272;23020;-81
2023/03/08 08:02:04;;;;;;;10.70;5.70;;;;;;;2.23;82.90;97395.03;136895;1272;22552;-81
2023/03/08 08:05:07;;;;;;;11.40;6.70;;;;;;;2.35;82.86;97404.89;137010;1272;22553;-80
2023/03/08 08:08:12;;;;;;;13.80;6.00;;;;;;;2.55;83.01;97406.70;137034;1272;22507;-80
2023/03/08 08:11:15;;;;;;;10.60;6.10;;;;;;;2.77;81.45;97407.15;136737;1272;22686;-82
2023/03/08 08:14:17;;;;;;;12.30;6.10;;;;;;;2.87;80.70;97413.54;136532;1272;22618;-80
2023/03/08 08:17:20;;;;;;;6.60;4.00;;;;;;;2.87;80.19;97415.77;136808;1272;22566;-81
2023/03/08 08:20:23;;;;;;;8.60;3.40;;;;;;;2.81;79.62;97414.10;136767;1272;24318;-80
2023/03/08 08:23:26;;;;;;;6.00;4.40;;;;;;;2.77;79.26;97417.81;136891;1272;22563;-81
2023/03/08 08:26:29;;;;;;;19.60;10.40;;;;;;;2.85;79.99;97417.11;136844;1272;23159;-81
2023/03/08 08:29:31;;;;;;;12.30;7.70;;;;;;;3.06;79.96;97413.73;136893;1266;22613;-79
2023/03/08 08:32:34;;;;;;;8.80;4.90;;;;;;;3.29;78.46;97413.44;135144;1272;24618;-82
2023/03/08 08:35:36;;;;;;;8.00;4.30;;;;;;;3.47;77.80;97417.73;136846;1272;23068;-79
2023/03/08 08:38:39;;;;;;;6.40;3.60;;;;;;;3.57;76.91;97416.87;136871;1272;22925;-81
2023/03/08 08:41:42;;;;;;;13.60;4.90;;;;;;;3.58;76.19;97419.46;136816;1272;22547;-82
2023/03/08 08:44:44;;;;;;;6.00;3.60;;;;;;;3.70;75.69;97419.15;136826;1272;22974;-80
2023/03/08 08:47:47;;;;;;;8.80;4.10;;;;;;;3.91;76.31;97414.13;136716;1272;22632;-80
2023/03/08 08:50:49;;;;;;;6.30;3.40;;;;;;;4.09;74.48;97414.40;136886;1272;22526;-80
2023/03/08 08:53:52;;;;;;;5.20;3.60;;;;;;;4.22;73.47;97415.60;136829;1272;22573;-81
2023/03/08 08:56:54;;;;;;;5.70;3.50;;;;;;;4.36;74.08;97408.94;136799;1272;22595;-80
2023/03/08 08:59:57;;;;;;;7.00;3.20;;;;;;;4.51;72.52;97408.63;136749;1272;22605;-82
2023/03/08 09:02:59;;;;;;;5.40;2.70;;;;;;;4.53;71.79;97412.61;136527;1272;24189;-80
2023/03/08 09:06:02;;;;;;;12.60;3.80;;;;;;;4.44;71.57;97414.57;135103;1272;23901;-80
2023/03/08 09:09:05;;;;;;;6.10;3.20;;;;;;;4.40;71.70;97408.33;136890;1272;23497;-83
2023/03/08 09:12:07;;;;;;;2.90;1.90;;;;;;;4.29;68.76;97401.95;136882;1272;22557;-81
2023/03/08 09:15:10;;;;;;;5.80;2.80;;;;;;;4.19;68.27;97398.02;136961;1272;23020;-80
2023/03/08 09:18:13;;;;;;;8.50;3.70;;;;;;;4.33;68.18;97402.69;137173;1272;22537;-82
2023/03/08 09:21:15;;;;;;;9.40;4.80;;;;;;;4.52;68.75;97399.67;137078;1272;22595;-81
2023/03/08 09:24:18;;;;;;;8.50;2.90;;;;;;;4.70;68.23;97411.63;136978;1272;22619;-81
2023/03/08 09:27:20;;;;;;;4.90;2.90;;;;;;;4.88;68.99;97398.04;136933;1272;22534;-79
2023/03/08 09:30:23;;;;;;;4.50;3.00;;;;;;;5.07;67.55;97404.10;135355;1272;23605;-78
2023/03/08 09:33:25;;;;;;;5.80;3.50;;;;;;;5.22;68.19;97406.34;135244;1272;23218;-80
2023/03/08 09:36:28;;;;;;;8.40;3.60;;;;;;;5.37;66.48;97402.52;137044;1272;25353;-81
2023/03/08 09:39:31;;;;;;;7.50;4.00;;;;;;;5.29;65.42;97403.48;136865;1272;22572;-79
2023/03/08 09:42:33;;;;;;;7.10;3.50;;;;;;;5.31;66.66;97406.27;136914;1272;22576;-80
2023/03/08 09:45:36;;;;;;;6.60;4.00;;;;;;;5.30;66.19;97404.70;136824;1272;22556;-82
2023/03/08 09:48:39;;;;;;;5.80;3.90;;;;;;;5.26;65.76;97400.52;136739;1272;22563;-82
2023/03/08 09:51:43;;;;;;;4.80;3.40;;;;;;;5.24;66.30;97405.16;136671;1272;22542;-82
2023/03/08 09:54:45;;;;;;;7.00;2.90;;;;;;;5.25;66.51;97410.88;136816;1272;22583;-83
2023/03/08 09:57:48;;;;;;;8.80;3.70;;;;;;;5.07;64.37;97419.27;137014;1272;22598;-82
2023/03/08 10:00:51;;;;;;;6.90;4.30;;;;;;;4.94;66.06;97418.27;137025;1272;22668;-81
2023/03/08 10:03:53;;;;;;;6.60;4.00;;;;;;;5.01;66.09;97420.92;137267;1272;22554;-81
2023/03/08 10:06:55;;;;;;;7.20;3.80;;;;;;;5.01;66.34;97424.73;136860;1272;24238;-81
2023/03/08 10:09:58;;;;;;;8.60;4.80;;;;;;;4.84;64.91;97431.42;136591;1272;22935;-80
2023/03/08 10:13:00;;;;;;;5.60;4.30;;;;;;;4.68;66.05;97425.02;136669;1272;22713;-81
2023/03/08 10:16:03;;;;;;;9.00;4.80;;;;;;;4.69;66.71;97430.39;136908;1272;22592;-82
2023/03/08 10:19:05;;;;;;;5.70;3.70;;;;;;;4.83;67.86;97435.39;136826;1272;22541;-80
2023/03/08 10:22:08;;;;;;;7.30;4.00;;;;;;;5.01;67.78;97434.90;136616;1272;22722;-80
2023/03/08 10:25:10;;;;;;;4.90;3.80;;;;;;;5.10;67.26;97428.10;135072;1272;22576;-80
2023/03/08 10:28:13;;;;;;;4.50;3.70;;;;;;;5.20;67.98;97420.12;136868;1272;22574;-80
2023/03/08 10:31:15;;;;;;;6.10;4.10;;;;;;;5.42;67.90;97425.86;136782;1272;24343;-81
2023/03/08 10:34:17;;;;;;;7.40;4.10;;;;;;;5.62;67.59;97419.14;136897;1272;22562;-81
2023/03/08 10:37:20;;;;;;;7.90;4.20;;;;;;;5.46;66.06;97422.80;136815;1272;22563;-81
2023/03/08 10:40:22;;;;;;;4.60;4.10;;;;;;;5.25;67.42;97424.67;136778;1269;22574;-80
2023/03/08 10:43:25;;;;;;;8.50;4.50;;;;;;;5.12;67.00;97427.95;136685;1269;22534;-80
2023/03/08 10:46:29;;;;;;;7.40;4.40;;;;;;;5.06;67.71;97414.79;136603;1272;22576;-80
2023/03/08 10:49:31;;;;;;;6.00;4.00;;;;;;;5.16;67.51;97410.91;136354;1272;23182;-81
2023/03/08 10:52:34;;;;;;;8.90;4.60;;;;;;;5.20;67.51;97409.25;136134;1272;22534;-81
2023/03/08 10:55:36;;;;;;;10.80;4.40;;;;;;;5.40;68.41;97407.55;136311;1272;22560;-80
2023/03/08 10:58:39;;;;;;;8.80;4.90;;;;;;;5.77;69.04;97395.27;136594;1272;22643;-80
2023/03/08 11:01:41;;;;;;;7.10;5.00;;;;;;;6.19;68.03;97390.61;136543;1272;22547;-80
2023/03/08 11:04:43;;;;;;;8.90;5.00;;;;;;;6.41;69.09;97380.88;136602;1272;22571;-80
2023/03/08 11:07:46;;;;;;;10.30;5.20;;;;;;;6.64;69.03;97383.57;137010;1272;22522;-80
2023/03/08 11:10:49;;;;;;;7.90;4.80;;;;;;;6.80;68.58;97375.67;137033;1272;22552;-81
2023/03/08 11:13:51;;;;;;;9.40;4.70;;;;;;;6.81;67.76;97367.38;136806;1272;22113;-79
2023/03/08 11:16:54;;;;;;;8.50;4.90;;;;;;;6.82;67.78;97366.87;137170;1272;22535;-81
2023/03/08 11:19:58;;;;;;;8.30;4.80;;;;;;;6.88;67.22;97375.70;137082;1272;22928;-80
2023/03/08 11:23:01;;;;;;;7.20;4.90;;;;;;;6.85;67.33;97372.57;137039;1272;22589;-79
2023/03/08 11:26:03;;;;;;;8.40;5.60;;;;;;;6.77;67.39;97372.90;135134;1272;22538;-81
2023/03/08 11:29:06;;;;;;;6.60;5.00;;;;;;;6.81;66.47;97369.63;136783;1272;24263;-80
2023/03/08 11:32:08;;;;;;;7.10;5.10;;;;;;;6.79;66.44;97358.04;136772;1272;22542;-79
2023/03/08 11:35:11;;;;;;;8.40;5.50;;;;;;;6.94;66.61;97354.98;137057;1272;22575;-81
2023/03/08 11:38:13;;;;;;;10.20;6.40;;;;;;;6.90;65.12;97356.87;136773;1272;22534;-81
2023/03/08 11:41:16;;;;;;;11.40;5.40;;;;;;;6.79;65.99;97359.59;136602;1272;22531;-82
2023/03/08 11:44:18;;;;;;;6.80;5.40;;;;;;;6.64;65.52;97359.38;136873;1272;24403;-81
2023/03/08 11:47:20;;;;;;;12.40;5.50;;;;;;;6.54;66.55;97360.02;136917;1272;25969;-81
2023/03/08 11:50:23;;;;;;;7.50;5.20;;;;;;;6.44;67.07;97366.20;136851;1272;22581;-81
2023/03/08 11:53:25;;;;;;;9.60;5.50;;;;;;;6.48;67.61;97363.98;136681;1272;22688;-82
2023/03/08 11:56:28;;;;;;;9.10;5.00;;;;;;;6.42;67.20;97359.28;136518;1272;24222;-81
2023/03/08 11:59:31;;;;;;;7.90;5.00;;;;;;;6.34;66.89;97350.61;136483;1272;22578;-81
2023/03/08 12:02:35;;;;;;;9.70;5.00;;;;;;;6.34;66.24;97344.23;136422;1272;22919;-81
2023/03/08 12:05:37;;;;;;;8.00;4.50;;;;;;;6.16;66.80;97340.15;136490;1272;22561;-81
2023/03/08 12:08:40;;;;;;;6.20;4.40;;;;;;;6.06;66.99;97337.15;136431;1272;22546;-80
2023/03/08 12:11:42;;;;;;;6.30;4.80;;;;;;;5.98;67.22;97337.09;136577;1272;22559;-80
2023/03/08 12:14:45;;;;;;;5.60;4.40;;;;;;;5.98;66.89;97337.44;136562;1272;22628;-81
2023/03/08 12:17:49;;;;;;;9.20;5.20;;;;;;;6.03;66.13;97339.02;136442;1272;22561;-83
2023/03/08 12:20:52;;;;;;;8.90;5.40;;;;;;;6.03;65.95;97340.05;136607;1272;22548;-81
2023/03/08 12:27:11;;;;;;;8.80;5.10;;;;;;;5.85;66.31;97338.02;136785;1272;22557;-80
2023/03/08 12:30:14;;;;;;;8.40;5.70;;;;;;;6.00;67.16;97336.76;135133;1272;22534;-81
2023/03/08 12:33:16;;;;;;;7.70;5.20;;;;;;;6.13;66.52;97344.97;137101;1272;22604;-81
2023/03/08 12:36:21;;;;;;;7.80;5.40;;;;;;;6.24;66.71;97343.98;137149;1272;22587;-81
2023/03/08 12:39:23;;;;;;;6.90;5.40;;;;;;;6.38;66.66;97340.77;137305;1272;22446;-77
2023/03/08 12:42:25;;;;;;;5.50;4.70;;;;;;;6.34;66.08;97342.66;135068;1272;22785;-81
2023/03/08 12:45:29;;;;;;;18.00;5.20;;;;;;;6.28;66.04;97336.41;137010;1272;23285;-80
2023/03/08 12:48:33;;;;;;;25.10;6.20;;;;;;;6.34;65.97;97326.94;137086;1272;22549;-80
2023/03/08 12:51:35;;;;;;;7.60;5.00;;;;;;;6.42;66.35;97323.52;137228;1272;22561;-80
2023/03/08 12:54:38;;;;;;;7.80;5.30;;;;;;;6.57;66.12;97316.83;137304;1269;22530;-81
2023/03/08 12:57:41;;;;;;;25.30;7.20;;;;;;;6.87;66.03;97311.89;137319;1272;22584;-81
2023/03/08 13:00:44;;;;;;;8.60;6.60;;;;;;;7.14;65.36;97300.71;137317;1272;22629;-80
2023/03/08 13:03:46;;;;;;;11.50;5.50;;;;;;;7.28;64.64;97298.81;137212;1272;22531;-81
2023/03/08 13:06:49;;;;;;;6.70;5.10;;;;;;;7.39;64.91;97302.27;137230;1272;22528;-80
2023/03/08 13:09:51;;;;;;;7.90;5.50;;;;;;;7.49;63.64;97298.98;137255;1272;23291;-81
2023/03/08 13:12:53;;;;;;;8.60;5.80;;;;;;;7.60;63.51;97285.13;137336;1272;23175;-82
2023/03/08 13:15:56;;;;;;;9.20;5.30;;;;;;;7.51;63.06;97284.27;137353;1272;22941;-82
2023/03/08 13:18:58;;;;;;;7.00;5.30;;;;;;;7.43;63.95;97281.16;137389;1272;23058;-82
2023/03/08 13:22:01;;;;;;;8.30;5.50;;;;;;;7.51;63.75;97273.55;137421;1272;22588;-83
2023/03/08 13:25:03;;;;;;;9.90;5.60;;;;;;;7.54;63.13;97264.88;137298;1272;22541;-84
2023/03/08 13:28:06;;;;;;;8.80;6.00;;;;;;;7.53;62.82;97257.95;137404;1272;22597;-83
2023/03/08 13:31:08;;;;;;;8.60;6.90;;;;;;;7.65;62.67;97252.92;137277;1272;23005;-83
2023/03/08 13:34:10;;;;;;;9.10;6.90;;;;;;;7.86;62.90;97252.20;137257;1272;22590;-83
2023/03/08 13:37:13;;;;;;;9.90;7.00;;;;;;;8.06;62.87;97244.68;136975;1272;22569;-84
2023/03/08 13:40:15;;;;;;;17.90;7.50;;;;;;;8.16;62.26;97238.58;136943;1272;22566;-84
2023/03/08 13:43:18;;;;;;;11.30;7.70;;;;;;;8.24;62.05;97232.30;136848;1272;23476;-83
2023/03/08 13:46:22;;;;;;;10.10;7.40;;;;;;;8.25;62.48;97228.14;136706;1272;22527;-81
2023/03/08 13:49:24;;;;;;;10.00;7.30;;;;;;;8.22;61.78;97229.54;137013;1272;23031;-82
2023/03/08 13:52:28;;;;;;;11.60;7.80;;;;;;;7.93;61.09;97229.31;137131;1272;22882;-83
2023/03/08 13:55:31;;;;;;;11.00;8.10;;;;;;;7.59;61.88;97229.21;137039;1272;22941;-84
2023/03/08 13:58:33;;;;;;;43.70;10.00;;;;;;;7.39;63.01;97219.55;137057;1272;23062;-82
2023/03/08 14:01:35;;;;;;;19.90;9.50;;;;;;;7.35;63.97;97214.90;137072;1272;22549;-84
2023/03/08 14:04:38;;;;;;;10.30;8.00;;;;;;;7.37;63.98;97212.63;136610;1272;22939;-85
2023/03/08 14:07:40;;;;;;;11.90;7.60;;;;;;;7.38;63.38;97207.44;136634;1260;22533;-83
2023/03/08 14:10:43;;;;;;;15.40;9.40;;;;;;;7.37;63.59;97199.84;136597;1272;22579;-83
2023/03/08 14:13:45;;;;;;;13.50;9.40;;;;;;;7.39;63.70;97198.09;136626;1272;22566;-82